sensor_id;sensor_type;location;lat;lon;timestamp;P1;durP1;ratioP1;P2;durP2;ratioP2
75246;SDS011;63844;50.042;19.224;2024-03-23T00:51:52;58.20;;;26.80;;
75246;SDS011;63844;50.042;19.224;2024-03-23T00:55:04;56.50;;;27.40;;
75246;SDS011;63844;50.042;19.224;2024-03-23T00:56:41;54.60;;;27.50;;
75246;SDS011;63844;50.042;19.224;2024-03-23T00:58:17;53.00;;;28.30;;
75246;SDS011;63844;50.042;19.224;2024-03-23T00:59:54;54.20;;;27.60;;
75246;SDS011;63844;50.042;19.224;2024-03-23T01:01:30;53.30;;;29.00;;
75246;SDS011;63844;50.042;19.224;2024-03-23T01:03:06;61.20;;;28.90;;
75246;SDS011;63844;50.042;19.224;2024-03-23T01:04:43;51.80;;;27.10;;
75246;SDS011;63844;50.042;19.224;2024-03-23T01:06:19;59.00;;;28.20;;
75246;SDS011;63844;50.042;19.224;2024-03-23T01:07:55;59.20;;;29.20;;
75246;SDS011;63844;50.042;19.224;2024-03-23T01:09:32;59.20;;;29.70;;
75246;SDS011;63844;50.042;19.224;2024-03-23T01:11:08;60.80;;;29.20;;
75246;SDS011;63844;50.042;19.224;2024-03-23T01:12:45;61.10;;;30.40;;
75246;SDS011;63844;50.042;19.224;2024-03-23T01:14:22;56.20;;;29.10;;
75246;SDS011;63844;50.042;19.224;2024-03-23T01:15:58;62.30;;;31.40;;
75246;SDS011;63844;50.042;19.224;2024-03-23T01:17:35;66.60;;;30.90;;
75246;SDS011;63844;50.042;19.224;2024-03-23T01:19:11;64.30;;;31.30;;
75246;SDS011;63844;50.042;19.224;2024-03-23T01:20:48;63.70;;;32.80;;
75246;SDS011;63844;50.042;19.224;2024-03-23T01:22:25;67.70;;;36.00;;
75246;SDS011;63844;50.042;19.224;2024-03-23T01:24:01;75.00;;;38.00;;
75246;SDS011;63844;50.042;19.224;2024-03-23T01:25:37;75.50;;;38.50;;
75246;SDS011;63844;50.042;19.224;2024-03-23T01:27:14;75.40;;;35.60;;
75246;SDS011;63844;50.042;19.224;2024-03-23T01:28:50;77.80;;;38.70;;
75246;SDS011;63844;50.042;19.224;2024-03-23T01:30:27;80.50;;;38.30;;
75246;SDS011;63844;50.042;19.224;2024-03-23T01:32:03;80.80;;;42.00;;
75246;SDS011;63844;50.042;19.224;2024-03-23T01:33:40;81.60;;;40.20;;
75246;SDS011;63844;50.042;19.224;2024-03-23T01:35:17;85.10;;;42.40;;
75246;SDS011;63844;50.042;19.224;2024-03-23T01:36:53;82.90;;;42.10;;
75246;SDS011;63844;50.042;19.224;2024-03-23T01:38:30;90.70;;;43.40;;
75246;SDS011;63844;50.042;19.224;2024-03-23T01:40:06;84.00;;;43.20;;
75246;SDS011;63844;50.042;19.224;2024-03-23T01:41:43;81.00;;;42.70;;
75246;SDS011;63844;50.042;19.224;2024-03-23T01:43:19;81.80;;;41.50;;
75246;SDS011;63844;50.042;19.224;2024-03-23T01:44:56;80.40;;;41.10;;
75246;SDS011;63844;50.042;19.224;2024-03-23T01:46:32;82.70;;;41.50;;
75246;SDS011;63844;50.042;19.224;2024-03-23T01:48:09;80.60;;;44.40;;
75246;SDS011;63844;50.042;19.224;2024-03-23T01:49:48;88.30;;;44.80;;
75246;SDS011;63844;50.042;19.224;2024-03-23T01:51:24;86.70;;;42.50;;
75246;SDS011;63844;50.042;19.224;2024-03-23T01:53:02;82.50;;;43.30;;
75246;SDS011;63844;50.042;19.224;2024-03-23T01:54:41;86.60;;;39.80;;
75246;SDS011;63844;50.042;19.224;2024-03-23T01:56:18;80.20;;;41.90;;
75246;SDS011;63844;50.042;19.224;2024-03-23T01:57:56;78.60;;;40.90;;
75246;SDS011;63844;50.042;19.224;2024-03-23T01:59:33;77.70;;;39.40;;
75246;SDS011;63844;50.042;19.224;2024-03-23T02:01:10;80.70;;;41.30;;
75246;SDS011;63844;50.042;19.224;2024-03-23T02:02:46;74.80;;;38.10;;
75246;SDS011;63844;50.042;19.224;2024-03-23T02:04:23;78.50;;;40.30;;
75246;SDS011;63844;50.042;19.224;2024-03-23T02:05:59;82.60;;;39.80;;
75246;SDS011;63844;50.042;19.224;2024-03-23T02:07:37;76.80;;;39.50;;
75246;SDS011;63844;50.042;19.224;2024-03-23T02:09:15;84.30;;;40.90;;
75246;SDS011;63844;50.042;19.224;2024-03-23T02:10:51;77.70;;;38.90;;
75246;SDS011;63844;50.042;19.224;2024-03-23T02:12:28;75.00;;;37.20;;
75246;SDS011;63844;50.042;19.224;2024-03-23T02:14:04;74.40;;;37.50;;
75246;SDS011;63844;50.042;19.224;2024-03-23T02:15:40;77.70;;;37.20;;
75246;SDS011;63844;50.042;19.224;2024-03-23T02:17:17;79.30;;;41.10;;
75246;SDS011;63844;50.042;19.224;2024-03-23T02:18:53;76.00;;;40.20;;
75246;SDS011;63844;50.042;19.224;2024-03-23T02:20:30;74.60;;;38.50;;
75246;SDS011;63844;50.042;19.224;2024-03-23T02:22:06;70.30;;;36.50;;
75246;SDS011;63844;50.042;19.224;2024-03-23T02:23:42;74.60;;;38.00;;
75246;SDS011;63844;50.042;19.224;2024-03-23T02:25:19;71.70;;;36.60;;
75246;SDS011;63844;50.042;19.224;2024-03-23T02:26:55;74.60;;;38.40;;
75246;SDS011;63844;50.042;19.224;2024-03-23T02:28:31;72.80;;;37.30;;
75246;SDS011;63844;50.042;19.224;2024-03-23T02:30:08;70.90;;;37.70;;
75246;SDS011;63844;50.042;19.224;2024-03-23T02:31:44;70.40;;;36.90;;
75246;SDS011;63844;50.042;19.224;2024-03-23T02:33:21;72.30;;;36.40;;
75246;SDS011;63844;50.042;19.224;2024-03-23T02:34:57;72.10;;;37.60;;
75246;SDS011;63844;50.042;19.224;2024-03-23T02:36:33;68.10;;;36.40;;
75246;SDS011;63844;50.042;19.224;2024-03-23T02:38:10;73.80;;;34.40;;
75246;SDS011;63844;50.042;19.224;2024-03-23T02:39:47;66.00;;;35.40;;
75246;SDS011;63844;50.042;19.224;2024-03-23T02:41:23;71.40;;;36.90;;
75246;SDS011;63844;50.042;19.224;2024-03-23T02:42:59;71.00;;;37.20;;
75246;SDS011;63844;50.042;19.224;2024-03-23T02:44:36;66.60;;;35.40;;
75246;SDS011;63844;50.042;19.224;2024-03-23T02:46:12;72.80;;;36.60;;
75246;SDS011;63844;50.042;19.224;2024-03-23T02:47:49;68.60;;;35.50;;
75246;SDS011;63844;50.042;19.224;2024-03-23T02:49:28;70.30;;;36.50;;
75246;SDS011;63844;50.042;19.224;2024-03-23T02:51:05;66.80;;;35.20;;
75246;SDS011;63844;50.042;19.224;2024-03-23T02:52:41;70.20;;;34.70;;
75246;SDS011;63844;50.042;19.224;2024-03-23T02:54:17;70.10;;;35.90;;
75246;SDS011;63844;50.042;19.224;2024-03-23T02:55:54;66.50;;;34.80;;
75246;SDS011;63844;50.042;19.224;2024-03-23T02:57:30;72.90;;;36.60;;
75246;SDS011;63844;50.042;19.224;2024-03-23T02:59:06;70.90;;;34.20;;
75246;SDS011;63844;50.042;19.224;2024-03-23T03:00:43;70.70;;;36.10;;
75246;SDS011;63844;50.042;19.224;2024-03-23T03:02:20;66.60;;;35.80;;
75246;SDS011;63844;50.042;19.224;2024-03-23T03:03:57;69.30;;;36.40;;
75246;SDS011;63844;50.042;19.224;2024-03-23T03:05:33;67.40;;;33.90;;
75246;SDS011;63844;50.042;19.224;2024-03-23T03:07:09;63.90;;;33.70;;
75246;SDS011;63844;50.042;19.224;2024-03-23T03:08:46;65.90;;;33.40;;
75246;SDS011;63844;50.042;19.224;2024-03-23T03:10:22;62.70;;;31.40;;
75246;SDS011;63844;50.042;19.224;2024-03-23T03:11:58;62.30;;;32.40;;
75246;SDS011;63844;50.042;19.224;2024-03-23T03:13:35;60.60;;;31.30;;
75246;SDS011;63844;50.042;19.224;2024-03-23T03:15:11;66.00;;;30.90;;
75246;SDS011;63844;50.042;19.224;2024-03-23T03:16:47;56.30;;;28.40;;
75246;SDS011;63844;50.042;19.224;2024-03-23T03:18:24;52.40;;;28.10;;
75246;SDS011;63844;50.042;19.224;2024-03-23T03:20:00;55.10;;;29.50;;
75246;SDS011;63844;50.042;19.224;2024-03-23T03:21:36;54.90;;;27.70;;
75246;SDS011;63844;50.042;19.224;2024-03-23T03:23:13;61.80;;;28.60;;
75246;SDS011;63844;50.042;19.224;2024-03-23T03:24:49;50.60;;;27.20;;
75246;SDS011;63844;50.042;19.224;2024-03-23T03:26:26;57.70;;;28.70;;
75246;SDS011;63844;50.042;19.224;2024-03-23T03:28:03;56.90;;;29.00;;
75246;SDS011;63844;50.042;19.224;2024-03-23T03:29:40;55.90;;;28.90;;
75246;SDS011;63844;50.042;19.224;2024-03-23T03:31:16;54.40;;;27.80;;
75246;SDS011;63844;50.042;19.224;2024-03-23T03:32:53;52.40;;;26.20;;
75246;SDS011;63844;50.042;19.224;2024-03-23T03:34:30;55.90;;;27.00;;
75246;SDS011;63844;50.042;19.224;2024-03-23T03:36:07;53.40;;;26.50;;
75246;SDS011;63844;50.042;19.224;2024-03-23T03:37:43;50.60;;;25.10;;
75246;SDS011;63844;50.042;19.224;2024-03-23T03:39:20;45.90;;;24.50;;
75246;SDS011;63844;50.042;19.224;2024-03-23T03:40:56;49.60;;;24.40;;
75246;SDS011;63844;50.042;19.224;2024-03-23T03:42:35;49.60;;;26.00;;
75246;SDS011;63844;50.042;19.224;2024-03-23T03:44:11;47.30;;;24.00;;
75246;SDS011;63844;50.042;19.224;2024-03-23T03:45:57;47.10;;;24.40;;
75246;SDS011;63844;50.042;19.224;2024-03-23T03:47:34;47.20;;;24.50;;
75246;SDS011;63844;50.042;19.224;2024-03-23T03:49:11;48.90;;;22.00;;
75246;SDS011;63844;50.042;19.224;2024-03-23T03:50:47;49.90;;;24.60;;
75246;SDS011;63844;50.042;19.224;2024-03-23T03:52:24;52.20;;;25.60;;
75246;SDS011;63844;50.042;19.224;2024-03-23T03:54:00;47.60;;;23.50;;
75246;SDS011;63844;50.042;19.224;2024-03-23T03:55:37;50.80;;;23.80;;
75246;SDS011;63844;50.042;19.224;2024-03-23T03:57:13;48.40;;;23.20;;
75246;SDS011;63844;50.042;19.224;2024-03-23T03:58:49;53.30;;;23.90;;
75246;SDS011;63844;50.042;19.224;2024-03-23T04:00:26;48.30;;;24.70;;
75246;SDS011;63844;50.042;19.224;2024-03-23T04:02:02;53.70;;;27.00;;
75246;SDS011;63844;50.042;19.224;2024-03-23T04:03:39;50.90;;;25.60;;
75246;SDS011;63844;50.042;19.224;2024-03-23T04:05:19;50.90;;;26.70;;
75246;SDS011;63844;50.042;19.224;2024-03-23T04:07:02;62.10;;;31.20;;
75246;SDS011;63844;50.042;19.224;2024-03-23T04:08:39;64.70;;;32.30;;
75246;SDS011;63844;50.042;19.224;2024-03-23T04:10:15;60.10;;;30.80;;
75246;SDS011;63844;50.042;19.224;2024-03-23T04:11:51;66.10;;;32.80;;
75246;SDS011;63844;50.042;19.224;2024-03-23T04:13:28;70.40;;;33.30;;
75246;SDS011;63844;50.042;19.224;2024-03-23T04:15:04;69.10;;;35.00;;
75246;SDS011;63844;50.042;19.224;2024-03-23T04:16:41;68.40;;;36.00;;
75246;SDS011;63844;50.042;19.224;2024-03-23T04:18:17;70.10;;;35.80;;
75246;SDS011;63844;50.042;19.224;2024-03-23T04:19:54;71.10;;;35.10;;
75246;SDS011;63844;50.042;19.224;2024-03-23T04:21:32;70.50;;;35.80;;
75246;SDS011;63844;50.042;19.224;2024-03-23T04:23:08;72.70;;;36.20;;
75246;SDS011;63844;50.042;19.224;2024-03-23T04:24:45;69.40;;;37.60;;
75246;SDS011;63844;50.042;19.224;2024-03-23T04:26:21;71.90;;;36.30;;
75246;SDS011;63844;50.042;19.224;2024-03-23T04:27:57;72.40;;;34.60;;
75246;SDS011;63844;50.042;19.224;2024-03-23T04:29:34;73.20;;;36.30;;
75246;SDS011;63844;50.042;19.224;2024-03-23T04:31:10;75.50;;;38.80;;
75246;SDS011;63844;50.042;19.224;2024-03-23T04:32:46;77.20;;;40.60;;
75246;SDS011;63844;50.042;19.224;2024-03-23T04:34:23;73.60;;;39.00;;
75246;SDS011;63844;50.042;19.224;2024-03-23T04:36:00;79.50;;;43.90;;
75246;SDS011;63844;50.042;19.224;2024-03-23T04:37:37;82.50;;;43.90;;
75246;SDS011;63844;50.042;19.224;2024-03-23T04:39:13;89.90;;;45.30;;
75246;SDS011;63844;50.042;19.224;2024-03-23T04:40:56;83.80;;;43.20;;
75246;SDS011;63844;50.042;19.224;2024-03-23T04:42:33;93.10;;;48.80;;
75246;SDS011;63844;50.042;19.224;2024-03-23T04:44:09;84.80;;;44.70;;
75246;SDS011;63844;50.042;19.224;2024-03-23T04:45:46;84.00;;;43.30;;
75246;SDS011;63844;50.042;19.224;2024-03-23T04:47:22;91.10;;;45.70;;
75246;SDS011;63844;50.042;19.224;2024-03-23T04:48:59;83.70;;;44.40;;
75246;SDS011;63844;50.042;19.224;2024-03-23T04:50:35;82.10;;;42.60;;
75246;SDS011;63844;50.042;19.224;2024-03-23T04:52:11;81.20;;;42.40;;
75246;SDS011;63844;50.042;19.224;2024-03-23T04:53:48;79.80;;;43.80;;
75246;SDS011;63844;50.042;19.224;2024-03-23T04:55:25;79.50;;;42.00;;
75246;SDS011;63844;50.042;19.224;2024-03-23T04:57:01;84.30;;;41.90;;
75246;SDS011;63844;50.042;19.224;2024-03-23T04:58:38;82.30;;;42.70;;
75246;SDS011;63844;50.042;19.224;2024-03-23T05:00:15;82.80;;;43.00;;
75246;SDS011;63844;50.042;19.224;2024-03-23T05:01:53;76.90;;;40.60;;
75246;SDS011;63844;50.042;19.224;2024-03-23T05:03:29;80.70;;;42.60;;
75246;SDS011;63844;50.042;19.224;2024-03-23T05:05:06;78.40;;;42.70;;
75246;SDS011;63844;50.042;19.224;2024-03-23T05:06:43;78.80;;;42.40;;
75246;SDS011;63844;50.042;19.224;2024-03-23T05:08:19;76.20;;;41.20;;
75246;SDS011;63844;50.042;19.224;2024-03-23T05:09:56;83.90;;;43.50;;
75246;SDS011;63844;50.042;19.224;2024-03-23T05:11:32;79.40;;;42.00;;
75246;SDS011;63844;50.042;19.224;2024-03-23T05:13:09;77.40;;;41.20;;
75246;SDS011;63844;50.042;19.224;2024-03-23T05:14:46;66.50;;;36.20;;
75246;SDS011;63844;50.042;19.224;2024-03-23T05:16:23;74.40;;;39.00;;
75246;SDS011;63844;50.042;19.224;2024-03-23T05:17:59;73.80;;;39.80;;
75246;SDS011;63844;50.042;19.224;2024-03-23T05:19:36;74.80;;;39.10;;
75246;SDS011;63844;50.042;19.224;2024-03-23T05:21:12;71.70;;;38.30;;
75246;SDS011;63844;50.042;19.224;2024-03-23T05:22:49;74.80;;;38.80;;
75246;SDS011;63844;50.042;19.224;2024-03-23T05:24:26;71.90;;;39.40;;
75246;SDS011;63844;50.042;19.224;2024-03-23T05:26:02;74.20;;;37.70;;
75246;SDS011;63844;50.042;19.224;2024-03-23T05:27:39;70.70;;;38.00;;
75246;SDS011;63844;50.042;19.224;2024-03-23T05:29:16;74.40;;;39.50;;
75246;SDS011;63844;50.042;19.224;2024-03-23T05:30:53;75.80;;;41.00;;
75246;SDS011;63844;50.042;19.224;2024-03-23T05:32:30;81.50;;;45.00;;
75246;SDS011;63844;50.042;19.224;2024-03-23T05:34:07;74.70;;;39.90;;
75246;SDS011;63844;50.042;19.224;2024-03-23T05:35:45;82.30;;;41.10;;
75246;SDS011;63844;50.042;19.224;2024-03-23T05:37:21;72.30;;;36.40;;
75246;SDS011;63844;50.042;19.224;2024-03-23T05:38:58;66.10;;;36.60;;
75246;SDS011;63844;50.042;19.224;2024-03-23T05:40:35;69.50;;;35.30;;
75246;SDS011;63844;50.042;19.224;2024-03-23T05:42:13;62.20;;;32.90;;
75246;SDS011;63844;50.042;19.224;2024-03-23T05:43:50;77.20;;;37.70;;
75246;SDS011;63844;50.042;19.224;2024-03-23T05:45:27;68.20;;;35.50;;
75246;SDS011;63844;50.042;19.224;2024-03-23T05:47:03;63.90;;;33.30;;
75246;SDS011;63844;50.042;19.224;2024-03-23T05:48:39;67.30;;;35.70;;
75246;SDS011;63844;50.042;19.224;2024-03-23T05:50:16;66.00;;;33.40;;
75246;SDS011;63844;50.042;19.224;2024-03-23T05:51:54;58.20;;;31.50;;
75246;SDS011;63844;50.042;19.224;2024-03-23T05:53:31;63.20;;;32.90;;
75246;SDS011;63844;50.042;19.224;2024-03-23T05:55:08;67.20;;;33.70;;
75246;SDS011;63844;50.042;19.224;2024-03-23T05:56:45;62.00;;;31.90;;
75246;SDS011;63844;50.042;19.224;2024-03-23T05:58:21;60.30;;;31.60;;
75246;SDS011;63844;50.042;19.224;2024-03-23T05:59:58;56.40;;;31.80;;
75246;SDS011;63844;50.042;19.224;2024-03-23T06:01:34;63.40;;;31.80;;
75246;SDS011;63844;50.042;19.224;2024-03-23T06:03:10;59.30;;;31.90;;
75246;SDS011;63844;50.042;19.224;2024-03-23T06:04:47;63.80;;;33.50;;
75246;SDS011;63844;50.042;19.224;2024-03-23T06:06:23;61.70;;;32.10;;
75246;SDS011;63844;50.042;19.224;2024-03-23T06:08:00;60.50;;;32.00;;
75246;SDS011;63844;50.042;19.224;2024-03-23T06:09:36;72.70;;;37.10;;
75246;SDS011;63844;50.042;19.224;2024-03-23T06:11:12;69.20;;;38.90;;
75246;SDS011;63844;50.042;19.224;2024-03-23T06:12:49;72.60;;;38.70;;
75246;SDS011;63844;50.042;19.224;2024-03-23T06:14:28;69.70;;;38.30;;
75246;SDS011;63844;50.042;19.224;2024-03-23T06:16:04;77.60;;;37.40;;
75246;SDS011;63844;50.042;19.224;2024-03-23T06:17:41;66.10;;;35.50;;
75246;SDS011;63844;50.042;19.224;2024-03-23T06:19:17;66.30;;;35.50;;
75246;SDS011;63844;50.042;19.224;2024-03-23T06:20:54;68.30;;;35.80;;
75246;SDS011;63844;50.042;19.224;2024-03-23T06:22:30;61.90;;;34.80;;
75246;SDS011;63844;50.042;19.224;2024-03-23T06:24:07;65.80;;;35.50;;
75246;SDS011;63844;50.042;19.224;2024-03-23T06:25:43;70.30;;;35.20;;
75246;SDS011;63844;50.042;19.224;2024-03-23T06:27:19;69.80;;;36.90;;
75246;SDS011;63844;50.042;19.224;2024-03-23T06:28:56;70.70;;;37.30;;
75246;SDS011;63844;50.042;19.224;2024-03-23T06:30:32;76.20;;;39.70;;
75246;SDS011;63844;50.042;19.224;2024-03-23T06:32:09;70.60;;;37.50;;
75246;SDS011;63844;50.042;19.224;2024-03-23T06:33:45;72.00;;;37.30;;
75246;SDS011;63844;50.042;19.224;2024-03-23T06:35:22;68.20;;;36.80;;
75246;SDS011;63844;50.042;19.224;2024-03-23T06:36:58;71.70;;;38.30;;
75246;SDS011;63844;50.042;19.224;2024-03-23T06:38:34;79.60;;;40.20;;
75246;SDS011;63844;50.042;19.224;2024-03-23T06:40:11;69.50;;;38.50;;
75246;SDS011;63844;50.042;19.224;2024-03-23T06:41:53;70.80;;;37.00;;
75246;SDS011;63844;50.042;19.224;2024-03-23T06:43:30;68.10;;;36.50;;
75246;SDS011;63844;50.042;19.224;2024-03-23T06:45:07;67.30;;;35.10;;
75246;SDS011;63844;50.042;19.224;2024-03-23T06:46:43;71.60;;;38.00;;
75246;SDS011;63844;50.042;19.224;2024-03-23T06:48:20;72.20;;;39.20;;
75246;SDS011;63844;50.042;19.224;2024-03-23T06:49:59;77.40;;;41.10;;
75246;SDS011;63844;50.042;19.224;2024-03-23T06:51:38;71.20;;;40.00;;
75246;SDS011;63844;50.042;19.224;2024-03-23T06:53:15;73.40;;;39.20;;
75246;SDS011;63844;50.042;19.224;2024-03-23T06:54:52;74.10;;;39.00;;
75246;SDS011;63844;50.042;19.224;2024-03-23T06:56:28;73.70;;;39.40;;
75246;SDS011;63844;50.042;19.224;2024-03-23T06:58:04;62.80;;;33.20;;
75246;SDS011;63844;50.042;19.224;2024-03-23T06:59:41;68.10;;;36.20;;
75246;SDS011;63844;50.042;19.224;2024-03-23T07:01:17;62.50;;;32.10;;
75246;SDS011;63844;50.042;19.224;2024-03-23T07:02:53;60.00;;;29.70;;
75246;SDS011;63844;50.042;19.224;2024-03-23T07:04:30;60.10;;;31.10;;
75246;SDS011;63844;50.042;19.224;2024-03-23T07:06:06;57.40;;;27.60;;
75246;SDS011;63844;50.042;19.224;2024-03-23T07:07:42;53.40;;;28.10;;
75246;SDS011;63844;50.042;19.224;2024-03-23T07:09:19;51.00;;;27.20;;
75246;SDS011;63844;50.042;19.224;2024-03-23T07:10:56;49.70;;;25.80;;
75246;SDS011;63844;50.042;19.224;2024-03-23T07:12:32;46.60;;;24.50;;
75246;SDS011;63844;50.042;19.224;2024-03-23T07:14:08;55.00;;;26.60;;
75246;SDS011;63844;50.042;19.224;2024-03-23T07:15:50;48.40;;;26.00;;
75246;SDS011;63844;50.042;19.224;2024-03-23T07:17:27;46.00;;;24.60;;
75246;SDS011;63844;50.042;19.224;2024-03-23T07:19:04;49.00;;;25.80;;
75246;SDS011;63844;50.042;19.224;2024-03-23T07:20:40;49.90;;;26.90;;
75246;SDS011;63844;50.042;19.224;2024-03-23T07:22:17;48.40;;;25.50;;
75246;SDS011;63844;50.042;19.224;2024-03-23T07:23:53;45.70;;;24.50;;
75246;SDS011;63844;50.042;19.224;2024-03-23T07:25:29;49.20;;;26.20;;
75246;SDS011;63844;50.042;19.224;2024-03-23T07:27:07;44.20;;;23.70;;
75246;SDS011;63844;50.042;19.224;2024-03-23T07:28:46;45.10;;;22.50;;
75246;SDS011;63844;50.042;19.224;2024-03-23T07:30:22;42.70;;;22.10;;
75246;SDS011;63844;50.042;19.224;2024-03-23T07:31:59;39.90;;;21.10;;
75246;SDS011;63844;50.042;19.224;2024-03-23T07:33:35;39.40;;;20.20;;
75246;SDS011;63844;50.042;19.224;2024-03-23T07:35:13;39.50;;;20.90;;
75246;SDS011;63844;50.042;19.224;2024-03-23T07:36:50;42.10;;;21.10;;
75246;SDS011;63844;50.042;19.224;2024-03-23T07:38:26;39.20;;;19.90;;
75246;SDS011;63844;50.042;19.224;2024-03-23T07:40:04;39.20;;;21.60;;
75246;SDS011;63844;50.042;19.224;2024-03-23T07:41:43;45.20;;;20.90;;
75246;SDS011;63844;50.042;19.224;2024-03-23T07:43:21;40.20;;;20.50;;
75246;SDS011;63844;50.042;19.224;2024-03-23T07:44:58;36.00;;;19.00;;
75246;SDS011;63844;50.042;19.224;2024-03-23T07:46:34;33.90;;;18.40;;
75246;SDS011;63844;50.042;19.224;2024-03-23T07:48:11;36.00;;;18.70;;
75246;SDS011;63844;50.042;19.224;2024-03-23T07:49:48;35.10;;;17.90;;
75246;SDS011;63844;50.042;19.224;2024-03-23T07:51:24;33.70;;;18.00;;
75246;SDS011;63844;50.042;19.224;2024-03-23T07:53:01;34.60;;;18.60;;
75246;SDS011;63844;50.042;19.224;2024-03-23T07:54:37;33.20;;;17.60;;
75246;SDS011;63844;50.042;19.224;2024-03-23T07:56:14;29.30;;;16.70;;
75246;SDS011;63844;50.042;19.224;2024-03-23T07:57:52;31.00;;;16.60;;
75246;SDS011;63844;50.042;19.224;2024-03-23T07:59:29;28.20;;;15.00;;
75246;SDS011;63844;50.042;19.224;2024-03-23T08:01:08;25.30;;;14.20;;
75246;SDS011;63844;50.042;19.224;2024-03-23T08:02:50;26.70;;;13.60;;
75246;SDS011;63844;50.042;19.224;2024-03-23T08:04:27;24.90;;;13.40;;
75246;SDS011;63844;50.042;19.224;2024-03-23T08:06:10;28.70;;;15.30;;
75246;SDS011;63844;50.042;19.224;2024-03-23T08:07:50;25.60;;;14.00;;
75246;SDS011;63844;50.042;19.224;2024-03-23T08:09:27;23.70;;;14.10;;
75246;SDS011;63844;50.042;19.224;2024-03-23T08:11:03;26.90;;;14.30;;
75246;SDS011;63844;50.042;19.224;2024-03-23T08:12:40;22.60;;;13.70;;
75246;SDS011;63844;50.042;19.224;2024-03-23T08:14:16;28.10;;;15.20;;
75246;SDS011;63844;50.042;19.224;2024-03-23T08:15:56;24.20;;;13.70;;
75246;SDS011;63844;50.042;19.224;2024-03-23T08:17:33;24.90;;;13.70;;
75246;SDS011;63844;50.042;19.224;2024-03-23T08:19:09;23.90;;;12.70;;
75246;SDS011;63844;50.042;19.224;2024-03-23T08:20:45;25.30;;;14.40;;
75246;SDS011;63844;50.042;19.224;2024-03-23T08:22:22;27.00;;;13.10;;
75246;SDS011;63844;50.042;19.224;2024-03-23T08:23:58;22.80;;;13.40;;
75246;SDS011;63844;50.042;19.224;2024-03-23T08:25:34;21.40;;;12.10;;
75246;SDS011;63844;50.042;19.224;2024-03-23T08:27:11;23.00;;;13.30;;
75246;SDS011;63844;50.042;19.224;2024-03-23T08:28:48;23.00;;;12.90;;
75246;SDS011;63844;50.042;19.224;2024-03-23T08:30:24;21.90;;;12.10;;
75246;SDS011;63844;50.042;19.224;2024-03-23T08:32:01;19.60;;;11.40;;
75246;SDS011;63844;50.042;19.224;2024-03-23T08:33:37;24.00;;;14.00;;
75246;SDS011;63844;50.042;19.224;2024-03-23T08:35:15;20.50;;;13.10;;
75246;SDS011;63844;50.042;19.224;2024-03-23T08:36:51;23.20;;;13.70;;
75246;SDS011;63844;50.042;19.224;2024-03-23T08:38:28;22.90;;;13.20;;
75246;SDS011;63844;50.042;19.224;2024-03-23T08:40:04;23.50;;;12.30;;
75246;SDS011;63844;50.042;19.224;2024-03-23T08:41:42;26.20;;;13.90;;
75246;SDS011;63844;50.042;19.224;2024-03-23T08:43:22;22.60;;;12.60;;
75246;SDS011;63844;50.042;19.224;2024-03-23T08:44:58;22.10;;;12.70;;
75246;SDS011;63844;50.042;19.224;2024-03-23T08:46:34;27.90;;;14.20;;
75246;SDS011;63844;50.042;19.224;2024-03-23T08:48:11;23.40;;;13.50;;
75246;SDS011;63844;50.042;19.224;2024-03-23T08:49:47;21.20;;;12.90;;
75246;SDS011;63844;50.042;19.224;2024-03-23T08:51:23;21.00;;;12.10;;
75246;SDS011;63844;50.042;19.224;2024-03-23T08:53:00;23.10;;;12.60;;
75246;SDS011;63844;50.042;19.224;2024-03-23T08:54:36;20.30;;;11.70;;
75246;SDS011;63844;50.042;19.224;2024-03-23T08:56:13;22.30;;;12.30;;
75246;SDS011;63844;50.042;19.224;2024-03-23T08:57:49;18.10;;;10.60;;
75246;SDS011;63844;50.042;19.224;2024-03-23T08:59:26;18.30;;;9.40;;
75246;SDS011;63844;50.042;19.224;2024-03-23T09:01:11;19.70;;;11.30;;
75246;SDS011;63844;50.042;19.224;2024-03-23T09:02:52;20.70;;;11.60;;
75246;SDS011;63844;50.042;19.224;2024-03-23T09:04:29;17.40;;;11.30;;
75246;SDS011;63844;50.042;19.224;2024-03-23T09:06:07;20.00;;;11.70;;
75246;SDS011;63844;50.042;19.224;2024-03-23T09:07:48;21.50;;;11.50;;
75246;SDS011;63844;50.042;19.224;2024-03-23T09:09:24;17.10;;;10.20;;
75246;SDS011;63844;50.042;19.224;2024-03-23T09:11:03;14.10;;;8.40;;
75246;SDS011;63844;50.042;19.224;2024-03-23T09:12:41;17.60;;;10.10;;
75246;SDS011;63844;50.042;19.224;2024-03-23T09:14:18;19.90;;;10.20;;
75246;SDS011;63844;50.042;19.224;2024-03-23T09:15:55;17.10;;;9.90;;
75246;SDS011;63844;50.042;19.224;2024-03-23T09:17:32;16.50;;;9.50;;
75246;SDS011;63844;50.042;19.224;2024-03-23T09:19:09;16.00;;;8.70;;
75246;SDS011;63844;50.042;19.224;2024-03-23T09:20:45;12.60;;;7.10;;
75246;SDS011;63844;50.042;19.224;2024-03-23T09:22:21;15.40;;;7.80;;
75246;SDS011;63844;50.042;19.224;2024-03-23T09:23:58;13.20;;;7.50;;
75246;SDS011;63844;50.042;19.224;2024-03-23T09:25:37;14.80;;;8.50;;
75246;SDS011;63844;50.042;19.224;2024-03-23T09:27:15;12.70;;;7.70;;
75246;SDS011;63844;50.042;19.224;2024-03-23T09:28:51;13.30;;;7.60;;
75246;SDS011;63844;50.042;19.224;2024-03-23T09:30:27;12.30;;;7.60;;
75246;SDS011;63844;50.042;19.224;2024-03-23T09:32:04;14.70;;;8.30;;
75246;SDS011;63844;50.042;19.224;2024-03-23T09:33:41;14.50;;;8.30;;
75246;SDS011;63844;50.042;19.224;2024-03-23T09:35:18;9.50;;;6.10;;
75246;SDS011;63844;50.042;19.224;2024-03-23T09:36:54;7.10;;;4.30;;
75246;SDS011;63844;50.042;19.224;2024-03-23T09:38:31;6.20;;;3.90;;
75246;SDS011;63844;50.042;19.224;2024-03-23T09:40:10;5.80;;;3.90;;
75246;SDS011;63844;50.042;19.224;2024-03-23T09:41:47;6.00;;;3.50;;
75246;SDS011;63844;50.042;19.224;2024-03-23T09:43:23;7.10;;;3.00;;
75246;SDS011;63844;50.042;19.224;2024-03-23T09:45:00;6.00;;;2.70;;
75246;SDS011;63844;50.042;19.224;2024-03-23T09:46:37;4.80;;;2.80;;
75246;SDS011;63844;50.042;19.224;2024-03-23T09:48:15;6.30;;;2.70;;
75246;SDS011;63844;50.042;19.224;2024-03-23T09:49:52;4.20;;;2.20;;
75246;SDS011;63844;50.042;19.224;2024-03-23T09:51:28;4.40;;;2.40;;
75246;SDS011;63844;50.042;19.224;2024-03-23T09:53:12;4.20;;;2.60;;
75246;SDS011;63844;50.042;19.224;2024-03-23T09:54:49;4.80;;;2.50;;
75246;SDS011;63844;50.042;19.224;2024-03-23T09:56:26;3.50;;;2.50;;
75246;SDS011;63844;50.042;19.224;2024-03-23T09:58:02;4.50;;;2.70;;
75246;SDS011;63844;50.042;19.224;2024-03-23T09:59:41;4.90;;;2.50;;
75246;SDS011;63844;50.042;19.224;2024-03-23T10:01:17;4.00;;;2.30;;
75246;SDS011;63844;50.042;19.224;2024-03-23T10:02:57;4.60;;;2.90;;
75246;SDS011;63844;50.042;19.224;2024-03-23T10:04:38;5.20;;;3.60;;
75246;SDS011;63844;50.042;19.224;2024-03-23T10:06:16;3.70;;;2.40;;
75246;SDS011;63844;50.042;19.224;2024-03-23T10:07:58;5.70;;;2.70;;
75246;SDS011;63844;50.042;19.224;2024-03-23T10:09:34;6.20;;;2.70;;
75246;SDS011;63844;50.042;19.224;2024-03-23T10:11:14;4.50;;;2.40;;
75246;SDS011;63844;50.042;19.224;2024-03-23T10:12:52;3.90;;;2.60;;